aviador You're here:

LEMG Decoded Metar

MALAGA in SPAIN
Report Time2018-07-20 06:00:00
UTC Time2018-07-20 06:35:36
Flight Rules vfr VFR
Wind130° at 04 kt
W.Decomp.*RWY 13: 4.0 kt HW 0.1 kt RCW
RWY 12: 3.9 kt HW 0.8 kt RCW
W.Rank130° ranks 4
Current wind is below 130° avg. (6.6)
Visibility9999 m
Phenomena:N/A
Clouds:Few 030 Hf
Expected CloudBase > 2,000 ft AGL from Temp-Dew spread
CeilingNone
Temp22°C (ISA +7)
Dew Point17°C (73% RH)
QNH1013 hPa
Density Alt1,102 ft
Elevation23 ft
Report Wrong Elevation
Raw Report
LEMG 200600Z 13004KT 9999 FEW030 22/17 Q1013 NOSIG=

Extra information for LEMG:More info

Metar Taf Metar & Taf Last 4 Metars F.Rules Stats Wind Profile Meteogram Temp Stats Airport Information Weather charts Add Link Nearby VenuesMetar ALERT Operation Metar Decoded Social comments